Terminal Aerodrome Forecast
Issued by NWS Grand Junction, CO

Home | Current Version | Previous Version | Text Only | Print | Product List | Glossary On
Versions: 1 2 3 4 5 6 7 8 9 10 11 12 13 14 15 16 17 18 19 20
000
FTUS45 KGJT 290538
TAFGJT
TAF
KGJT 290538Z 2906/3006 11004KT P6SM BKN130
     FM291100 13005KT P6SM BKN110
     FM291600 25007KT P6SM VCSH BKN080
     FM292000 28009KT P6SM VCSH BKN070
     FM300200 29010KT P6SM VCSH BKN080=

USA.gov is the U.S. government's official web portal to all federal, state and local government web resources and services.